Time;durP1;ratioP1;P1;durP2;ratioP2;P2;SDS_P1;SDS_P2;PMS_P1;PMS_P2;Temp;Humidity;BMP_temperature;BMP_pressure;BME280_temperature;BME280_humidity;BME280_pressure;Samples;Min_cycle;Max_cycle;Signal;HPM_P1;HPM_P2
2021/03/08 00:01:13;;;;;;;15.02;9.70;;;19.70;99.90;;;;;;5014954;28;20048;-36
2021/03/08 00:03:39;;;;;;;14.30;10.13;;;19.70;99.90;;;;;;5014331;28;20037;-36
2021/03/08 00:06:05;;;;;;;17.23;9.77;;;19.70;99.90;;;;;;5014005;28;20041;-34
2021/03/08 00:08:31;;;;;;;16.13;10.48;;;19.70;99.90;;;;;;5012929;28;20036;-37
2021/03/08 00:10:57;;;;;;;18.98;9.98;;;19.60;99.90;;;;;;5014327;28;20017;-36
2021/03/08 00:13:22;;;;;;;15.77;8.77;;;19.60;99.90;;;;;;5014507;28;20030;-34
2021/03/08 00:15:48;;;;;;;13.73;8.82;;;19.60;99.90;;;;;;5013574;28;20037;-38
2021/03/08 00:18:14;;;;;;;12.65;9.25;;;19.60;99.90;;;;;;5012680;28;20030;-38
2021/03/08 00:20:40;;;;;;;14.65;9.02;;;19.60;99.90;;;;;;5014771;28;20022;-38
2021/03/08 00:23:06;;;;;;;15.90;9.45;;;19.50;99.90;;;;;;5014327;28;20065;-38
2021/03/08 00:25:33;;;;;;;22.70;9.43;;;19.50;99.90;;;;;;5014036;28;20030;-38
2021/03/08 00:28:00;;;;;;;12.77;8.77;;;19.50;99.90;;;;;;5014245;28;20492;-38
2021/03/08 00:30:27;;;;;;;13.05;8.32;;;19.50;99.90;;;;;;5014035;28;20030;-38
2021/03/08 00:32:53;;;;;;;18.40;10.05;;;19.50;99.90;;;;;;5014267;28;20068;-39
2021/03/08 00:35:19;;;;;;;15.75;8.23;;;19.50;99.90;;;;;;5014549;28;20022;-38
2021/03/08 00:37:45;;;;;;;16.90;10.07;;;19.50;99.90;;;;;;5014075;28;20816;-38
2021/03/08 00:40:19;;;;;;;13.57;8.65;;;19.40;99.90;;;;;;5014075;28;20018;-38
2021/03/08 00:42:45;;;;;;;15.82;9.23;;;19.40;99.90;;;;;;5011694;28;20368;-39
2021/03/08 00:45:13;;;;;;;16.92;9.35;;;19.40;99.90;;;;;;5012886;28;20460;-39
2021/03/08 00:47:39;;;;;;;13.57;8.07;;;19.40;99.90;;;;;;5013140;28;20084;-39
2021/03/08 00:50:13;;;;;;;17.73;8.63;;;19.40;99.90;;;;;;5012945;28;20038;-39
2021/03/08 00:52:39;;;;;;;14.70;7.30;;;19.30;99.90;;;;;;5012459;28;20472;-45
2021/03/08 00:55:05;;;;;;;13.00;7.63;;;19.30;99.90;;;;;;5013242;28;20041;-45
2021/03/08 00:57:31;;;;;;;15.40;7.70;;;19.30;99.90;;;;;;5012741;28;20449;-45
2021/03/08 00:59:57;;;;;;;14.25;8.30;;;19.30;99.90;;;;;;5013412;28;20037;-45
2021/03/08 01:02:23;;;;;;;18.17;7.35;;;19.20;99.90;;;;;;5012680;28;20073;-43
2021/03/08 01:04:49;;;;;;;13.13;6.45;;;19.20;99.90;;;;;;5012861;28;20018;-43
2021/03/08 01:07:15;;;;;;;15.93;7.15;;;19.20;99.90;;;;;;5012099;28;20565;-47
2021/03/08 01:09:40;;;;;;;12.77;6.30;;;19.20;99.90;;;;;;5012612;28;20052;-46
2021/03/08 01:12:07;;;;;;;17.60;8.45;;;19.20;99.90;;;;;;5012337;28;20496;-47
2021/03/08 01:14:33;;;;;;;14.50;7.00;;;19.20;99.90;;;;;;5012084;28;20055;-47
2021/03/08 01:16:59;;;;;;;11.90;7.25;;;19.20;99.90;;;;;;5011946;28;20021;-48
2021/03/08 01:19:24;;;;;;;17.20;6.65;;;19.20;99.90;;;;;;5012451;28;20037;-47
2021/03/08 01:21:50;;;;;;;12.10;6.70;;;19.10;99.90;;;;;;5012887;28;20084;-46
2021/03/08 01:24:16;;;;;;;10.18;6.15;;;19.10;99.90;;;;;;5012691;28;20096;-44
2021/03/08 01:26:42;;;;;;;13.00;6.50;;;19.10;99.90;;;;;;5012977;28;20386;-44
2021/03/08 01:29:08;;;;;;;8.82;6.05;;;19.10;99.90;;;;;;5012868;28;20026;-44
2021/03/08 01:31:34;;;;;;;12.38;5.60;;;19.10;99.90;;;;;;5012599;28;20030;-47
2021/03/08 01:34:00;;;;;;;15.20;6.10;;;19.10;99.90;;;;;;5012074;28;20026;-48
2021/03/08 01:36:26;;;;;;;11.40;5.38;;;19.10;99.90;;;;;;5012654;28;20380;-45
2021/03/08 01:38:52;;;;;;;14.40;6.43;;;19.10;99.90;;;;;;5012577;28;20041;-45
2021/03/08 01:41:17;;;;;;;12.85;5.82;;;19.00;99.90;;;;;;5012876;28;20034;-43
2021/03/08 01:43:43;;;;;;;14.25;5.97;;;19.00;99.90;;;;;;5012955;28;20029;-44
2021/03/08 01:46:09;;;;;;;13.45;5.78;;;19.00;99.90;;;;;;5011800;28;20117;-44
2021/03/08 01:48:35;;;;;;;12.02;5.75;;;19.00;99.90;;;;;;5012695;28;20372;-45
2021/03/08 01:51:02;;;;;;;10.70;5.55;;;19.00;99.90;;;;;;5012817;28;20546;-44
2021/03/08 01:53:28;;;;;;;11.95;5.10;;;19.00;99.90;;;;;;5012672;28;20033;-44
2021/03/08 01:55:56;;;;;;;12.30;5.00;;;19.00;99.90;;;;;;5012869;28;20080;-43
2021/03/08 01:58:23;;;;;;;15.65;5.88;;;18.90;99.90;;;;;;5011633;28;20499;-43
2021/03/08 02:00:49;;;;;;;11.23;4.68;;;18.90;99.90;;;;;;5013146;28;20156;-43
2021/03/08 02:03:16;;;;;;;8.00;4.68;;;18.90;99.90;;;;;;5011258;28;20483;-43
2021/03/08 02:05:44;;;;;;;13.07;4.85;;;18.90;99.90;;;;;;5012655;28;20100;-45
2021/03/08 02:08:12;;;;;;;12.88;4.78;;;18.90;99.90;;;;;;5012033;28;20038;-44
2021/03/08 02:10:41;;;;;;;16.48;6.03;;;18.90;99.90;;;;;;5012631;28;20026;-44
2021/03/08 02:13:39;;;;;;;7.97;4.22;;;18.90;99.90;;;;;;5012479;28;20117;-45
2021/03/08 02:16:40;;;;;;;19.38;5.53;;;18.90;99.90;;;;;;5011869;28;20754;-44
2021/03/08 02:19:28;;;;;;;8.23;5.10;;;18.90;99.90;;;;;;5006360;28;20434;-43
2021/03/08 02:22:30;;;;;;;10.25;4.65;;;18.90;99.90;;;;;;5014648;28;20030;-43
2021/03/08 02:25:03;;;;;;;10.38;5.15;;;18.90;99.90;;;;;;5016665;28;20475;-43
2021/03/08 02:27:50;;;;;;;11.55;5.30;;;18.80;99.90;;;;;;5006989;28;20039;-43
2021/03/08 02:30:34;;;;;;;;;;;18.80;99.90;;;;;;4997462;28;20036;-43
2021/03/08 02:33:04;;;;;;;8.95;4.63;;;18.90;99.90;;;;;;5008490;28;19910;-44
2021/03/08 02:35:32;;;;;;;12.07;5.22;;;18.90;99.90;;;;;;5015759;28;20030;-47
2021/03/08 02:38:06;;;;;;;9.07;4.85;;;18.80;99.90;;;;;;5015055;28;20036;-43
2021/03/08 02:40:40;;;;;;;10.38;4.82;;;18.80;99.90;;;;;;5015341;28;20030;-43
2021/03/08 02:43:19;;;;;;;12.52;4.32;;;18.80;99.90;;;;;;5015439;28;20534;-44
2021/03/08 02:45:48;;;;;;;14.68;4.75;;;18.80;99.90;;;;;;5014122;28;20419;-45
2021/03/08 02:48:15;;;;;;;8.07;4.40;;;18.80;99.90;;;;;;5015055;28;20552;-45
2021/03/08 02:50:42;;;;;;;11.90;4.90;;;18.80;99.90;;;;;;5015197;28;20468;-44
2021/03/08 02:53:12;;;;;;;10.75;5.00;;;18.80;99.90;;;;;;5029565;28;20030;-44
2021/03/08 02:55:46;;;;;;;8.70;4.47;;;18.80;99.90;;;;;;5015472;28;20030;-43
2021/03/08 02:58:13;;;;;;;7.13;4.78;;;18.80;99.90;;;;;;5015875;28;20030;-43
2021/03/08 03:00:40;;;;;;;10.57;4.50;;;18.80;99.90;;;;;;5015551;28;20038;-45
2021/03/08 03:03:07;;;;;;;11.93;5.13;;;18.70;99.90;;;;;;5014902;28;20048;-45
2021/03/08 03:05:37;;;;;;;9.30;4.22;;;18.70;99.90;;;;;;5015387;28;20048;-45
2021/03/08 03:08:05;;;;;;;9.65;3.78;;;18.70;99.90;;;;;;5014970;28;20042;-45
2021/03/08 03:10:35;;;;;;;12.30;4.70;;;18.70;99.90;;;;;;5015200;28;20026;-45
2021/03/08 03:13:03;;;;;;;16.10;5.60;;;18.70;99.90;;;;;;5014811;28;20037;-45
2021/03/08 03:15:35;;;;;;;10.05;4.90;;;18.70;99.90;;;;;;5014712;28;20018;-43
2021/03/08 03:18:01;;;;;;;11.27;4.72;;;18.70;99.90;;;;;;5014167;28;20109;-43
2021/03/08 03:20:28;;;;;;;8.13;3.65;;;18.70;99.90;;;;;;5014124;28;20026;-45
2021/03/08 03:22:56;;;;;;;12.32;4.72;;;18.70;99.90;;;;;;5013640;28;20081;-45
2021/03/08 03:25:24;;;;;;;6.75;4.15;;;18.70;99.90;;;;;;5014742;28;20022;-45
2021/03/08 03:27:52;;;;;;;9.68;4.25;;;18.70;99.90;;;;;;5013682;28;20776;-44
2021/03/08 03:30:24;;;;;;;7.35;4.20;;;18.70;99.90;;;;;;5012534;28;20030;-45
2021/03/08 03:32:51;;;;;;;10.23;5.15;;;18.70;99.90;;;;;;5015015;28;20033;-43
2021/03/08 03:35:20;;;;;;;9.77;4.37;;;18.60;99.90;;;;;;5014763;28;20037;-43
2021/03/08 03:37:47;;;;;;;10.20;4.85;;;18.60;99.90;;;;;;5015031;28;20452;-43
2021/03/08 03:40:19;;;;;;;9.52;4.35;;;18.60;99.90;;;;;;5014623;28;20034;-43
2021/03/08 03:42:49;;;;;;;9.68;4.82;;;18.50;99.90;;;;;;5014929;28;20037;-43
2021/03/08 03:45:18;;;;;;;11.07;3.85;;;18.50;99.90;;;;;;5013199;28;20018;-42
2021/03/08 03:47:44;;;;;;;8.93;4.30;;;18.50;99.90;;;;;;5012962;28;20211;-43
2021/03/08 03:50:13;;;;;;;9.65;4.00;;;18.50;99.90;;;;;;5014862;28;20029;-42
2021/03/08 03:52:39;;;;;;;11.93;4.50;;;18.50;99.90;;;;;;5014531;28;20018;-43
2021/03/08 03:55:09;;;;;;;12.13;4.43;;;18.50;99.90;;;;;;5014754;28;20046;-43
2021/03/08 03:57:58;;;;;;;11.18;5.25;;;18.50;99.90;;;;;;5014258;28;20025;-43
2021/03/08 04:00:25;;;;;;;10.32;4.30;;;18.50;99.90;;;;;;5009334;28;20487;-43
2021/03/08 04:03:06;;;;;;;9.35;4.63;;;18.50;99.90;;;;;;5014416;28;20097;-43
2021/03/08 04:05:34;;;;;;;9.90;4.85;;;18.50;99.90;;;;;;5014068;28;20112;-42
2021/03/08 04:08:02;;;;;;;11.00;5.03;;;18.50;99.90;;;;;;5014488;28;20038;-43
2021/03/08 04:10:28;;;;;;;7.95;4.25;;;18.50;99.90;;;;;;5013834;28;20376;-43
2021/03/08 04:13:18;;;;;;;12.05;4.68;;;18.50;99.90;;;;;;5014593;28;20022;-43
2021/03/08 04:15:44;;;;;;;11.20;5.50;;;18.50;99.90;;;;;;5013812;28;20171;-43
2021/03/08 04:18:12;;;;;;;9.02;4.43;;;18.50;99.90;;;;;;5014211;28;20101;-43
2021/03/08 04:20:39;;;;;;;8.85;5.22;;;18.50;99.90;;;;;;5014049;28;20026;-43
2021/03/08 04:23:10;;;;;;;7.70;4.47;;;18.50;99.90;;;;;;5014283;28;20026;-43
2021/03/08 04:25:37;;;;;;;7.40;4.18;;;18.50;99.90;;;;;;5014171;28;20124;-42
2021/03/08 04:28:05;;;;;;;9.13;5.13;;;18.50;99.90;;;;;;5014149;28;20034;-43
2021/03/08 04:30:32;;;;;;;;;;;18.50;99.90;;;;;;5013081;28;20472;-42
2021/03/08 04:32:59;;;;;;;8.60;4.13;;;18.50;99.90;;;;;;5014066;28;19905;-43
2021/03/08 04:35:31;;;;;;;13.90;5.87;;;18.50;99.90;;;;;;5013500;28;20026;-42
2021/03/08 04:37:58;;;;;;;11.20;5.18;;;18.40;99.90;;;;;;5013536;28;20037;-43
2021/03/08 04:40:24;;;;;;;10.65;5.50;;;18.40;99.90;;;;;;5013322;28;20076;-43
2021/03/08 04:42:52;;;;;;;11.77;5.75;;;18.40;99.90;;;;;;5011811;28;20048;-36
2021/03/08 04:45:19;;;;;;;;;;;18.40;99.90;;;;;;5012401;28;20026;-36
2021/03/08 04:47:46;;;;;;;10.00;5.03;;;18.30;99.90;;;;;;5011620;28;19909;-36
2021/03/08 04:50:14;;;;;;;11.80;5.30;;;18.30;99.90;;;;;;5012766;28;20030;-36
2021/03/08 04:52:48;;;;;;;14.35;4.90;;;18.30;99.90;;;;;;5012544;28;20310;-36
2021/03/08 04:55:14;;;;;;;10.00;4.85;;;18.30;99.90;;;;;;5013274;28;20109;-36
2021/03/08 04:57:42;;;;;;;8.23;4.40;;;18.40;99.90;;;;;;5013146;28;20479;-36
2021/03/08 05:00:10;;;;;;;10.95;5.05;;;18.30;99.90;;;;;;5013772;28;20029;-35
2021/03/08 05:02:38;;;;;;;11.05;4.43;;;18.30;99.90;;;;;;5013502;28;20084;-36
2021/03/08 05:05:07;;;;;;;11.02;4.40;;;18.30;99.90;;;;;;5013189;28;20376;-36
2021/03/08 05:07:38;;;;;;;9.70;5.30;;;18.30;99.90;;;;;;5013364;28;20037;-36
2021/03/08 05:10:07;;;;;;;11.43;4.90;;;18.30;99.90;;;;;;4994041;28;20030;-36
2021/03/08 05:12:36;;;;;;;11.63;5.05;;;18.30;99.90;;;;;;5002784;28;20060;-36
2021/03/08 05:15:05;;;;;;;15.05;5.38;;;18.30;99.90;;;;;;5012791;28;20492;-36
2021/03/08 05:17:32;;;;;;;8.48;4.72;;;18.30;99.90;;;;;;5012343;28;20026;-36
2021/03/08 05:20:00;;;;;;;8.18;4.50;;;18.30;99.90;;;;;;5013375;28;20029;-35
2021/03/08 05:22:26;;;;;;;11.20;4.85;;;18.30;99.90;;;;;;5013204;28;20030;-36
2021/03/08 05:24:53;;;;;;;10.18;5.10;;;18.30;99.90;;;;;;5013208;28;20026;-36
2021/03/08 05:27:20;;;;;;;12.57;4.88;;;18.20;99.90;;;;;;5012299;28;20029;-37
2021/03/08 05:29:47;;;;;;;16.13;4.93;;;18.20;99.90;;;;;;5013464;28;20022;-35
2021/03/08 05:32:25;;;;;;;12.07;4.72;;;18.20;99.90;;;;;;5012409;28;20465;-36
2021/03/08 05:34:53;;;;;;;9.57;4.28;;;18.30;99.90;;;;;;5013468;28;20049;-36
2021/03/08 05:37:20;;;;;;;12.52;5.13;;;18.20;99.90;;;;;;5012200;28;20030;-36
2021/03/08 05:39:48;;;;;;;9.55;4.68;;;18.20;99.90;;;;;;5012735;28;20029;-36
2021/03/08 05:42:16;;;;;;;8.13;4.63;;;18.20;99.90;;;;;;5011127;28;20030;-37
2021/03/08 05:44:48;;;;;;;11.32;4.45;;;18.20;99.90;;;;;;5010548;28;20034;-36
2021/03/08 05:47:32;;;;;;;8.98;4.40;;;18.20;99.90;;;;;;5009095;28;20415;-36
2021/03/08 05:50:23;;;;;;;10.48;5.05;;;18.20;99.90;;;;;;5012996;28;20026;-36
2021/03/08 05:53:26;;;;;;;9.38;3.85;;;18.20;99.90;;;;;;5013536;28;20030;-37
2021/03/08 05:56:11;;;;;;;11.02;4.40;;;18.20;99.90;;;;;;5016103;28;20107;-37
2021/03/08 05:58:47;;;;;;;9.27;4.20;;;18.20;99.90;;;;;;5015753;28;20030;-37
2021/03/08 06:01:41;;;;;;;14.05;4.90;;;18.20;99.90;;;;;;4996589;28;20038;-37
2021/03/08 06:04:53;;;;;;;12.77;4.57;;;18.20;99.90;;;;;;5014087;28;20023;-37
2021/03/08 06:07:46;;;;;;;10.52;4.78;;;18.20;99.90;;;;;;5015651;28;20116;-37
2021/03/08 06:10:26;;;;;;;8.02;4.32;;;18.20;99.90;;;;;;5016020;28;20476;-35
2021/03/08 06:13:00;;;;;;;10.48;5.30;;;18.20;99.90;;;;;;5015049;28;20029;-37
2021/03/08 06:15:28;;;;;;;7.18;4.55;;;18.20;99.90;;;;;;5016029;28;20018;-37
2021/03/08 06:17:55;;;;;;;8.30;4.55;;;18.20;99.90;;;;;;5015157;28;20140;-37
2021/03/08 06:20:21;;;;;;;13.95;5.15;;;18.10;99.90;;;;;;5015755;28;20026;-37
2021/03/08 06:22:50;;;;;;;14.75;5.68;;;18.10;99.90;;;;;;5014287;28;20028;-35
2021/03/08 06:25:17;;;;;;;9.23;4.88;;;18.20;99.90;;;;;;5016201;28;20079;-38
2021/03/08 06:27:44;;;;;;;10.83;5.37;;;18.20;99.90;;;;;;5016108;28;20048;-38
2021/03/08 06:30:11;;;;;;;12.82;5.35;;;18.10;99.90;;;;;;5015031;28;20265;-37
2021/03/08 06:32:37;;;;;;;9.18;6.03;;;18.10;99.90;;;;;;5013490;28;20113;-37
2021/03/08 06:35:04;;;;;;;11.13;4.60;;;18.10;99.90;;;;;;5016122;28;20054;-38
2021/03/08 06:37:30;;;;;;;12.68;6.50;;;18.10;99.90;;;;;;5014406;28;20105;-37
2021/03/08 06:39:56;;;;;;;13.82;5.32;;;18.10;99.90;;;;;;5015004;28;20034;-35
2021/03/08 06:42:22;;;;;;;9.40;5.13;;;18.10;99.90;;;;;;5013463;28;20033;-37
2021/03/08 06:44:50;;;;;;;11.45;5.85;;;18.10;99.90;;;;;;5015547;28;20100;-37
2021/03/08 06:47:18;;;;;;;17.58;6.30;;;18.10;99.90;;;;;;5014195;28;20033;-37
2021/03/08 06:49:44;;;;;;;10.20;5.63;;;18.10;99.90;;;;;;5014419;28;20018;-37
2021/03/08 06:52:14;;;;;;;10.45;5.50;;;18.00;99.90;;;;;;5016015;28;20412;-37
2021/03/08 06:54:43;;;;;;;11.98;5.55;;;18.00;99.90;;;;;;5016107;28;20014;-38
2021/03/08 06:57:30;;;;;;;10.15;5.05;;;18.00;99.90;;;;;;5015914;28;20014;-38
2021/03/08 06:59:58;;;;;;;10.05;5.50;;;18.00;99.90;;;;;;5016487;28;20045;-37
2021/03/08 07:02:46;;;;;;;9.65;4.80;;;18.00;99.90;;;;;;5016039;28;20030;-37
2021/03/08 07:05:13;;;;;;;11.48;5.03;;;18.00;99.90;;;;;;5026684;28;20132;-38
2021/03/08 07:07:54;;;;;;;12.40;5.13;;;18.00;99.90;;;;;;5015574;28;20030;-38
2021/03/08 07:10:40;;;;;;;11.30;5.18;;;18.00;99.90;;;;;;5018917;28;20036;-36
2021/03/08 07:13:08;;;;;;;12.23;5.35;;;17.90;99.90;;;;;;5014908;28;20033;-38
2021/03/08 07:15:53;;;;;;;11.77;5.28;;;17.90;99.90;;;;;;5012719;28;20049;-36
2021/03/08 07:18:23;;;;;;;9.52;5.13;;;17.90;99.90;;;;;;5014429;28;20025;-36
2021/03/08 07:20:53;;;;;;;12.85;5.32;;;17.90;99.90;;;;;;5009825;28;20061;-37
2021/03/08 07:23:26;;;;;;;13.07;5.97;;;17.90;99.90;;;;;;4994720;28;20053;-37
2021/03/08 07:26:05;;;;;;;12.48;5.88;;;17.90;99.90;;;;;;4994545;28;20118;-36
2021/03/08 07:28:31;;;;;;;12.55;6.55;;;17.90;99.90;;;;;;5009609;28;20030;-36
2021/03/08 07:30:57;;;;;;;15.07;7.47;;;17.90;99.90;;;;;;4994570;28;20093;-37
2021/03/08 07:33:24;;;;;;;17.10;7.10;;;17.90;99.90;;;;;;4994563;28;20026;-37
2021/03/08 07:35:53;;;;;;;16.13;6.70;;;17.90;99.90;;;;;;5009459;28;20404;-36
2021/03/08 07:38:37;;;;;;;18.30;7.82;;;17.90;99.90;;;;;;4994344;28;20057;-36
2021/03/08 07:41:13;;;;;;;16.08;9.27;;;18.00;99.90;;;;;;4994352;28;20022;-36
2021/03/08 07:43:40;;;;;;;21.27;11.43;;;18.00;99.90;;;;;;4994487;28;20022;-36
2021/03/08 07:46:24;;;;;;;28.13;15.15;;;18.00;99.90;;;;;;4995366;28;20550;-38
2021/03/08 07:48:50;;;;;;;27.27;13.68;;;18.00;99.90;;;;;;4995032;28;20027;-35
2021/03/08 07:51:16;;;;;;;29.25;16.75;;;18.00;99.90;;;;;;4994827;28;20019;-36
2021/03/08 07:53:41;;;;;;;30.20;15.48;;;18.00;99.90;;;;;;4994476;28;20059;-36
2021/03/08 07:56:09;;;;;;;26.88;14.57;;;18.00;99.90;;;;;;4994169;28;20564;-38
2021/03/08 07:58:37;;;;;;;21.95;15.75;;;18.00;99.90;;;;;;4994316;28;20488;-36
2021/03/08 08:01:09;;;;;;;39.72;19.65;;;18.00;99.90;;;;;;4994475;28;20062;-35
2021/03/08 08:03:38;;;;;;;33.20;17.52;;;18.00;99.90;;;;;;4993900;28;20420;-35
2021/03/08 08:06:10;;;;;;;29.92;18.27;;;18.10;99.90;;;;;;4994205;28;20038;-36
2021/03/08 08:08:49;;;;;;;31.40;16.00;;;18.10;99.90;;;;;;4994181;28;20111;-35
2021/03/08 08:11:17;;;;;;;26.15;14.40;;;18.10;99.90;;;;;;4994393;28;20080;-37
2021/03/08 08:13:44;;;;;;;;;;;18.10;99.90;;;;;;4994946;28;20085;-37
2021/03/08 08:16:12;;;;;;;25.67;15.15;;;18.20;99.90;;;;;;4993131;28;19906;-38
2021/03/08 08:18:43;;;;;;;30.55;14.60;;;18.20;99.90;;;;;;4994426;28;20061;-38
2021/03/08 08:21:19;;;;;;;21.40;12.52;;;18.20;99.90;;;;;;4994172;28;20054;-38
2021/03/08 08:23:56;;;;;;;24.98;13.73;;;18.30;99.90;;;;;;4994806;28;20026;-38
2021/03/08 08:26:24;;;;;;;23.25;11.73;;;18.30;99.90;;;;;;4994750;28;20034;-37
2021/03/08 08:28:51;;;;;;;19.58;12.30;;;18.40;99.90;;;;;;4994642;28;20026;-37
2021/03/08 08:31:18;;;;;;;19.20;10.52;;;18.40;99.90;;;;;;4994568;28;20014;-38
2021/03/08 08:33:44;;;;;;;23.75;10.32;;;18.40;99.90;;;;;;4993769;28;20824;-38
2021/03/08 08:36:25;;;;;;;17.30;9.48;;;18.40;99.90;;;;;;4993899;28;20019;-38
2021/03/08 08:38:54;;;;;;;19.42;8.50;;;18.40;99.90;;;;;;4994277;28;20030;-35
2021/03/08 08:41:29;;;;;;;15.25;8.30;;;18.50;99.90;;;;;;4993862;28;20065;-35
2021/03/08 08:44:12;;;;;;;18.25;9.20;;;18.50;99.90;;;;;;4994160;28;20358;-36
2021/03/08 08:46:40;;;;;;;16.42;8.52;;;18.50;99.90;;;;;;4993787;28;20022;-36
2021/03/08 08:49:06;;;;;;;15.60;8.35;;;18.60;99.90;;;;;;4994053;28;20046;-35
2021/03/08 08:51:53;;;;;;;19.98;8.40;;;18.60;99.90;;;;;;4994008;28;20440;-36
2021/03/08 08:54:27;;;;;;;21.52;9.32;;;18.70;99.90;;;;;;4994216;28;20019;-36
2021/03/08 08:56:57;;;;;;;21.80;8.98;;;18.70;99.90;;;;;;4993824;28;20434;-35
2021/03/08 08:59:27;;;;;;;60.70;43.67;;;18.80;99.90;;;;;;4993837;28;20465;-35
2021/03/08 09:02:23;;;;;;;47.20;32.30;;;18.80;99.90;;;;;;4993256;28;20041;-36
2021/03/08 09:04:49;;;;;;;40.78;28.38;;;18.80;99.90;;;;;;5012332;28;20030;-36
2021/03/08 09:07:27;;;;;;;34.88;24.83;;;18.80;99.90;;;;;;5012450;28;20046;-36
2021/03/08 09:10:02;;;;;;;;;;;18.80;99.90;;;;;;5011236;28;20484;-36
2021/03/08 09:12:41;;;;;;;27.58;16.17;;;18.80;99.90;;;;;;5012680;28;20279;-38
2021/03/08 09:15:09;;;;;;;26.40;15.07;;;18.80;99.90;;;;;;5013228;28;20515;-36
2021/03/08 09:17:43;;;;;;;20.65;14.45;;;18.80;99.90;;;;;;5012462;28;20033;-38
2021/03/08 09:20:09;;;;;;;23.15;12.90;;;18.90;99.90;;;;;;5013273;28;20018;-36
2021/03/08 09:22:49;;;;;;;24.13;10.80;;;18.90;99.90;;;;;;5013171;28;20029;-36
2021/03/08 09:25:18;;;;;;;19.17;10.20;;;18.90;99.90;;;;;;5013381;28;20099;-36
2021/03/08 09:27:48;;;;;;;20.05;9.98;;;18.90;99.90;;;;;;5012726;28;20084;-36
2021/03/08 09:30:21;;;;;;;17.50;8.77;;;19.00;99.90;;;;;;5013151;28;20030;-36
2021/03/08 09:32:53;;;;;;;20.20;8.40;;;19.00;99.90;;;;;;5013063;28;20033;-36
2021/03/08 09:35:28;;;;;;;19.38;8.85;;;19.00;99.90;;;;;;5013459;28;20100;-36
2021/03/08 09:37:56;;;;;;;23.85;8.77;;;19.10;99.90;;;;;;5012462;28;20380;-36
2021/03/08 09:40:27;;;;;;;23.02;8.50;;;19.10;99.90;;;;;;5013033;28;20026;-36
2021/03/08 09:42:54;;;;;;;31.38;7.65;;;19.20;99.90;;;;;;5013063;28;20022;-37
2021/03/08 09:45:19;;;;;;;15.57;7.78;;;19.20;99.90;;;;;;5013437;28;20024;-38
2021/03/08 09:47:46;;;;;;;47.85;24.23;;;19.20;99.90;;;;;;5011505;28;20105;-36
2021/03/08 09:50:22;;;;;;;43.47;27.63;;;19.30;99.90;;;;;;5011827;28;20451;-36
2021/03/08 09:52:47;;;;;;;45.60;27.88;;;19.30;99.90;;;;;;5013168;28;20108;-40
2021/03/08 09:55:21;;;;;;;34.35;18.25;;;19.30;99.90;;;;;;5013054;28;20096;-34
2021/03/08 09:57:47;;;;;;;69.95;46.63;;;19.30;99.90;;;;;;5013048;28;20371;-34
2021/03/08 10:00:16;;;;;;;66.35;43.45;;;19.40;99.90;;;;;;5013556;28;20033;-39
2021/03/08 10:02:42;;;;;;;74.57;49.90;;;19.40;99.90;;;;;;5012889;28;20492;-37
2021/03/08 10:05:10;;;;;;;50.65;33.95;;;19.50;99.90;;;;;;5012978;28;20054;-36
2021/03/08 10:07:51;;;;;;;57.10;36.90;;;19.50;99.90;;;;;;5012933;28;20216;-36
2021/03/08 10:10:18;;;;;;;37.00;21.15;;;19.50;99.90;;;;;;5013265;28;20037;-36
2021/03/08 10:12:43;;;;;;;27.70;13.27;;;19.60;99.90;;;;;;5013208;28;20097;-36
2021/03/08 10:15:11;;;;;;;18.23;10.57;;;19.70;99.90;;;;;;5013040;28;20109;-35
2021/03/08 10:17:58;;;;;;;18.67;12.43;;;19.70;99.90;;;;;;5012962;28;20033;-36
2021/03/08 10:20:24;;;;;;;29.47;14.83;;;19.80;99.90;;;;;;5013060;28;20329;-36
2021/03/08 10:22:50;;;;;;;24.90;9.73;;;19.80;99.90;;;;;;5012804;28;20022;-36
2021/03/08 10:25:22;;;;;;;18.42;7.22;;;19.80;99.90;;;;;;5012787;28;20026;-36
2021/03/08 10:27:53;;;;;;;15.30;7.35;;;19.90;99.90;;;;;;5012972;28;20514;-36
2021/03/08 10:30:20;;;;;;;13.95;6.25;;;19.90;99.90;;;;;;5011611;28;20126;-39
2021/03/08 10:32:47;;;;;;;20.27;6.83;;;20.00;99.90;;;;;;5012391;28;20021;-35
2021/03/08 10:35:14;;;;;;;12.90;6.25;;;20.00;99.90;;;;;;5012926;28;20029;-39
2021/03/08 10:37:41;;;;;;;14.15;5.68;;;20.10;99.90;;;;;;5012637;28;20068;-36
2021/03/08 10:40:08;;;;;;;13.93;6.00;;;20.10;99.90;;;;;;5012973;28;20029;-35
2021/03/08 10:42:37;;;;;;;16.77;6.05;;;20.20;99.90;;;;;;5015067;28;20309;-35
2021/03/08 10:45:06;;;;;;;17.17;5.78;;;20.20;99.90;;;;;;5016036;28;20030;-36
2021/03/08 10:47:31;;;;;;;15.07;6.38;;;20.20;99.90;;;;;;5016283;28;20031;-36
2021/03/08 10:49:57;;;;;;;16.10;6.53;;;20.30;99.90;;;;;;5015370;28;20396;-36
2021/03/08 10:52:24;;;;;;;14.88;6.13;;;20.30;99.90;;;;;;5016068;28;20394;-38
2021/03/08 10:54:50;;;;;;;13.27;6.47;;;20.40;99.90;;;;;;5015924;28;20022;-36
2021/03/08 10:57:16;;;;;;;13.07;5.68;;;20.50;99.90;;;;;;5009558;28;20072;-36
2021/03/08 10:59:53;;;;;;;14.80;5.25;;;20.50;99.90;;;;;;5014455;28;20030;-39
2021/03/08 11:02:20;;;;;;;15.10;6.18;;;20.40;99.90;;;;;;5015851;28;20030;-39
2021/03/08 11:04:49;;;;;;;20.30;6.28;;;20.50;99.90;;;;;;5015873;28;20487;-39
2021/03/08 11:07:28;;;;;;;16.48;6.63;;;20.50;99.90;;;;;;5015660;28;20057;-39
2021/03/08 11:09:54;;;;;;;16.35;5.10;;;20.60;99.90;;;;;;5015659;28;20029;-36
2021/03/08 11:12:23;;;;;;;19.00;6.13;;;20.60;99.90;;;;;;5015582;28;20412;-36
2021/03/08 11:14:59;;;;;;;13.80;5.03;;;20.60;99.90;;;;;;5015425;28;20436;-36
2021/03/08 11:17:36;;;;;;;13.10;5.15;;;20.60;99.90;;;;;;5015633;28;20026;-36
2021/03/08 11:20:09;;;;;;;129.23;98.07;;;20.70;99.90;;;;;;5015308;28;20575;-36
2021/03/08 11:23:00;;;;;;;42.70;28.48;;;20.60;99.90;;;;;;5015296;28;20022;-38
2021/03/08 11:25:32;;;;;;;15.85;7.80;;;20.70;99.90;;;;;;5006779;28;20473;-35
2021/03/08 11:28:00;;;;;;;16.95;6.13;;;20.80;99.90;;;;;;4996714;28;20026;-35
2021/03/08 11:30:26;;;;;;;16.70;5.72;;;20.90;99.90;;;;;;5004624;28;20022;-35
2021/03/08 11:32:55;;;;;;;23.90;6.50;;;20.90;99.90;;;;;;5005941;28;20041;-36
2021/03/08 11:35:24;;;;;;;14.32;5.93;;;20.90;99.90;;;;;;5007177;28;20488;-35
2021/03/08 11:37:57;;;;;;;20.00;6.07;;;21.00;99.90;;;;;;5004497;28;20050;-36
2021/03/08 11:40:24;;;;;;;19.52;6.13;;;21.00;99.90;;;;;;5003748;28;20161;-37
2021/03/08 11:42:50;;;;;;;18.03;5.43;;;21.00;99.90;;;;;;5001739;28;20018;-35
2021/03/08 11:45:18;;;;;;;16.13;6.03;;;21.00;99.90;;;;;;4995513;28;20037;-34
2021/03/08 11:47:44;;;;;;;19.35;6.18;;;21.10;99.90;;;;;;4995351;28;20025;-35
2021/03/08 11:50:10;;;;;;;22.95;6.82;;;21.20;99.90;;;;;;4998490;28;20471;-35
2021/03/08 11:52:36;;;;;;;14.07;5.03;;;21.10;99.90;;;;;;4994944;28;20038;-37
2021/03/08 11:55:03;;;;;;;17.98;5.97;;;21.20;99.90;;;;;;4997800;28;20022;-35
2021/03/08 11:57:29;;;;;;;17.42;5.43;;;21.30;99.90;;;;;;5005874;28;20491;-36
2021/03/08 11:59:55;;;;;;;12.60;6.18;;;21.40;99.90;;;;;;5005685;28;20034;-37
2021/03/08 12:02:21;;;;;;;23.25;9.35;;;21.40;99.90;;;;;;5009087;28;20037;-34
2021/03/08 12:04:47;;;;;;;19.60;8.18;;;21.50;99.90;;;;;;5003501;28;20109;-35
2021/03/08 12:07:13;;;;;;;24.77;8.20;;;21.60;99.90;;;;;;5003971;28;20044;-35
2021/03/08 12:09:38;;;;;;;19.13;8.05;;;21.60;99.90;;;;;;5004939;28;20034;-35
2021/03/08 12:12:05;;;;;;;22.58;9.05;;;21.70;99.90;;;;;;5003321;28;20027;-35
2021/03/08 12:14:30;;;;;;;26.48;11.60;;;21.70;99.90;;;;;;5004216;28;20084;-35
2021/03/08 12:16:56;;;;;;;18.20;10.35;;;21.70;99.90;;;;;;5003593;28;20492;-37
2021/03/08 12:19:22;;;;;;;27.50;10.52;;;21.80;99.90;;;;;;5002995;28;20018;-35
2021/03/08 12:21:49;;;;;;;17.92;9.35;;;21.80;99.90;;;;;;5004555;28;20479;-37
2021/03/08 12:24:15;;;;;;;21.20;11.05;;;21.90;99.90;;;;;;5003780;28;20022;-37
2021/03/08 12:26:40;;;;;;;19.48;8.50;;;21.90;99.90;;;;;;5001910;28;20772;-37
2021/03/08 12:29:06;;;;;;;24.55;8.77;;;22.00;99.90;;;;;;5004726;28;20496;-35
2021/03/08 12:31:32;;;;;;;18.65;7.07;;;22.00;99.90;;;;;;4997085;28;20049;-35
2021/03/08 12:33:58;;;;;;;13.93;7.60;;;22.00;99.90;;;;;;4994383;28;20477;-35
2021/03/08 12:36:24;;;;;;;23.15;6.93;;;22.10;99.90;;;;;;4994424;28;20149;-35
2021/03/08 12:38:50;;;;;;;26.75;8.15;;;22.10;99.90;;;;;;4994308;28;20483;-35
2021/03/08 12:41:16;;;;;;;19.20;6.88;;;22.20;99.90;;;;;;4993094;28;20399;-38
2021/03/08 12:43:42;;;;;;;21.52;8.32;;;22.20;99.90;;;;;;4994378;28;20022;-35
2021/03/08 12:46:08;;;;;;;19.65;8.25;;;22.20;99.90;;;;;;4994098;28;20041;-35
2021/03/08 12:48:34;;;;;;;21.30;8.55;;;22.20;99.90;;;;;;4994037;28;20022;-34
2021/03/08 12:51:00;;;;;;;27.27;8.43;;;22.20;99.90;;;;;;5009088;28;20033;-35
2021/03/08 12:53:26;;;;;;;27.30;8.40;;;22.30;99.90;;;;;;4994138;28;20683;-35